createdAt,value
2023-01-31T00:01:40.348Z,45.50
2023-01-31T00:04:09.055Z,41.78
2023-01-31T00:06:38.563Z,39.10
2023-01-31T00:09:06.752Z,45.35
2023-01-31T00:11:35.042Z,40.83
2023-01-31T00:14:03.195Z,39.45
2023-01-31T00:16:30.403Z,40.33
2023-01-31T00:18:57.527Z,37.67
2023-01-31T00:21:25.553Z,40.75
2023-01-31T00:23:53.355Z,41.45
2023-01-31T00:26:22.002Z,39.92
2023-01-31T00:28:49.935Z,38.53
2023-01-31T00:31:17.712Z,40.20
2023-01-31T00:33:46.238Z,40.22
2023-01-31T00:36:14.619Z,39.05
2023-01-31T00:38:45.330Z,34.45
2023-01-31T00:41:12.709Z,37.72
2023-01-31T00:43:39.826Z,39.60
2023-01-31T00:46:07.552Z,41.15
2023-01-31T00:48:35.378Z,39.63
2023-01-31T00:51:02.598Z,42.75
2023-01-31T00:53:29.842Z,37.40
2023-01-31T00:56:02.461Z,38.05
2023-01-31T00:58:29.683Z,36.22
2023-01-31T01:00:56.873Z,38.95
2023-01-31T01:03:24.006Z,40.40
2023-01-31T01:05:51.195Z,40.22
2023-01-31T01:08:18.302Z,37.35
2023-01-31T01:10:45.605Z,39.90
2023-01-31T01:13:12.806Z,41.53
2023-01-31T01:15:40.095Z,45.42
2023-01-31T01:18:08.231Z,44.45
2023-01-31T01:20:36.582Z,38.35
2023-01-31T01:23:03.845Z,41.30
2023-01-31T01:25:30.954Z,41.83
2023-01-31T01:27:58.155Z,41.40
2023-01-31T01:30:25.262Z,43.00
2023-01-31T01:32:55.354Z,41.63
2023-01-31T01:35:22.551Z,42.83
2023-01-31T01:37:49.911Z,38.58
2023-01-31T01:40:17.592Z,38.85
2023-01-31T01:42:44.786Z,43.08
2023-01-31T01:45:17.447Z,38.63
2023-01-31T01:47:50.414Z,38.03
2023-01-31T01:50:24.283Z,37.33
2023-01-31T01:52:53.071Z,40.83
2023-01-31T01:55:23.162Z,39.10
2023-01-31T01:57:52.379Z,40.25
2023-01-31T02:00:21.415Z,38.58
2023-01-31T02:02:50.029Z,37.35
2023-01-31T02:05:20.994Z,40.33
2023-01-31T02:07:48.411Z,40.08
2023-01-31T02:10:36.070Z,39.35
2023-01-31T02:13:03.510Z,37.25
2023-01-31T02:15:31.402Z,39.03
2023-01-31T02:17:58.538Z,42.90
2023-01-31T02:20:35.184Z,41.67
2023-01-31T02:23:19.630Z,44.00
2023-01-31T02:25:56.000Z,41.38
2023-01-31T02:28:23.141Z,39.13
2023-01-31T02:30:56.441Z,44.05
2023-01-31T02:33:42.306Z,40.97
2023-01-31T02:36:29.751Z,42.35
2023-01-31T02:39:00.146Z,41.45
2023-01-31T02:41:27.252Z,42.45
2023-01-31T02:44:16.189Z,39.70
2023-01-31T02:47:01.218Z,42.63
2023-01-31T02:49:34.978Z,41.35
2023-01-31T02:52:16.779Z,43.22
2023-01-31T02:55:05.451Z,41.72
2023-01-31T02:57:33.087Z,40.38
2023-01-31T03:00:00.418Z,44.00
2023-01-31T03:02:28.131Z,43.60
2023-01-31T03:04:55.272Z,45.40
2023-01-31T03:07:26.869Z,44.83
2023-01-31T03:10:03.189Z,43.42
2023-01-31T03:12:33.520Z,46.50
2023-01-31T03:15:06.111Z,45.40
2023-01-31T03:17:48.938Z,42.60
2023-01-31T03:20:19.614Z,43.05
2023-01-31T03:22:46.771Z,41.58
2023-01-31T03:25:15.854Z,43.45
2023-01-31T03:27:45.212Z,40.17
2023-01-31T03:30:18.599Z,47.58
2023-01-31T03:32:56.644Z,39.35
2023-01-31T03:35:26.549Z,39.90
2023-01-31T03:37:58.164Z,44.05
2023-01-31T03:40:27.111Z,39.83
2023-01-31T03:43:03.889Z,43.75
2023-01-31T03:45:34.246Z,38.75
2023-01-31T03:48:03.715Z,41.88
2023-01-31T03:50:42.270Z,39.45
2023-01-31T03:53:16.010Z,38.15
2023-01-31T03:55:45.213Z,45.80
2023-01-31T03:58:14.194Z,39.15
2023-01-31T04:00:43.187Z,43.03
2023-01-31T04:03:12.987Z,46.20
2023-01-31T04:05:40.882Z,50.08
2023-01-31T04:08:08.167Z,50.60
2023-01-31T04:10:35.288Z,47.35
2023-01-31T04:13:02.571Z,51.17
2023-01-31T04:15:29.855Z,49.63
2023-01-31T04:17:56.975Z,52.90
2023-01-31T04:20:24.134Z,44.65
2023-01-31T04:22:51.376Z,41.83
2023-01-31T04:25:18.946Z,40.75
2023-01-31T04:27:46.296Z,42.55
2023-01-31T04:30:13.708Z,43.08
2023-01-31T04:32:40.810Z,41.55
2023-01-31T04:35:08.079Z,44.40
2023-01-31T04:37:35.765Z,43.83
2023-01-31T04:40:02.916Z,41.95
2023-01-31T04:42:30.043Z,44.88
2023-01-31T04:44:57.203Z,43.72
2023-01-31T04:47:24.315Z,42.22
2023-01-31T04:49:51.468Z,47.47
2023-01-31T04:52:18.647Z,46.22
2023-01-31T04:54:45.788Z,46.60
2023-01-31T04:57:12.969Z,46.25
2023-01-31T04:59:40.162Z,44.33
2023-01-31T05:02:07.395Z,48.67
2023-01-31T05:04:34.532Z,46.63
2023-01-31T05:07:01.756Z,44.00
2023-01-31T05:09:28.922Z,45.70
2023-01-31T05:11:56.034Z,50.70
2023-01-31T05:14:23.230Z,44.75
2023-01-31T05:16:50.402Z,44.88
2023-01-31T05:19:17.785Z,42.45
2023-01-31T05:22:00.317Z,50.58
2023-01-31T05:24:28.675Z,49.30
2023-01-31T05:26:58.600Z,51.28
2023-01-31T05:29:26.925Z,48.03
2023-01-31T05:31:55.155Z,47.50
2023-01-31T05:34:22.845Z,49.53
2023-01-31T05:36:50.113Z,49.42
2023-01-31T05:39:17.383Z,51.55
2023-01-31T05:41:44.547Z,48.03
2023-01-31T05:44:11.845Z,46.17
2023-01-31T05:46:39.164Z,47.58
2023-01-31T05:49:06.399Z,48.03
2023-01-31T05:51:33.960Z,47.00
2023-01-31T05:54:01.613Z,48.17
2023-01-31T05:56:28.851Z,47.80
2023-01-31T05:58:56.169Z,48.40
2023-01-31T06:01:24.871Z,47.80
2023-01-31T06:03:52.000Z,47.35
2023-01-31T06:06:19.748Z,51.17
2023-01-31T06:08:46.858Z,47.42
2023-01-31T06:11:14.432Z,47.92
2023-01-31T06:13:45.439Z,44.60
2023-01-31T06:16:13.331Z,46.25
2023-01-31T06:18:40.566Z,47.05
2023-01-31T06:21:07.805Z,45.55
2023-01-31T06:23:34.976Z,44.65
2023-01-31T06:26:02.388Z,44.70
2023-01-31T06:28:29.834Z,46.75
2023-01-31T06:30:57.059Z,44.70
2023-01-31T06:33:31.450Z,48.00
2023-01-31T06:36:06.092Z,51.90
2023-01-31T06:38:33.234Z,48.30
2023-01-31T06:41:00.546Z,45.88
2023-01-31T06:43:27.719Z,42.28
2023-01-31T06:45:54.993Z,49.40
2023-01-31T06:48:22.157Z,50.67
2023-01-31T06:50:49.356Z,46.95
2023-01-31T06:53:16.741Z,47.60
2023-01-31T06:55:43.926Z,48.88
2023-01-31T06:58:11.178Z,48.95
2023-01-31T07:00:38.304Z,47.92
2023-01-31T07:03:05.449Z,50.20
2023-01-31T07:05:32.729Z,49.25
2023-01-31T07:08:00.053Z,49.72
2023-01-31T07:10:27.232Z,49.67
2023-01-31T07:12:54.424Z,51.78
2023-01-31T07:15:21.901Z,49.38
2023-01-31T07:17:49.261Z,43.80
2023-01-31T07:20:16.546Z,44.83
2023-01-31T07:22:43.655Z,49.33
2023-01-31T07:25:10.757Z,49.22
2023-01-31T07:27:37.942Z,49.47
2023-01-31T07:30:05.292Z,43.17
2023-01-31T07:32:32.475Z,46.67
2023-01-31T07:34:59.745Z,52.08
2023-01-31T07:37:26.888Z,47.75
2023-01-31T07:39:53.992Z,47.83
2023-01-31T07:42:21.165Z,50.70
2023-01-31T07:44:48.724Z,49.72
2023-01-31T07:47:15.868Z,49.20
2023-01-31T07:49:43.067Z,53.75
2023-01-31T07:52:10.173Z,48.47
2023-01-31T07:54:37.277Z,56.85
2023-01-31T07:57:04.558Z,48.55
2023-01-31T07:59:31.971Z,63.92
2023-01-31T08:02:17.990Z,57.13
2023-01-31T08:04:45.218Z,54.10
2023-01-31T08:07:13.207Z,54.10
2023-01-31T08:09:40.664Z,59.13
2023-01-31T08:12:08.135Z,56.17
2023-01-31T08:14:35.283Z,54.22
2023-01-31T08:17:02.564Z,53.20
2023-01-31T08:19:30.570Z,50.80
2023-01-31T08:21:57.728Z,54.05
2023-01-31T08:24:24.943Z,56.40
2023-01-31T08:26:52.138Z,55.22
2023-01-31T08:29:19.435Z,54.75
2023-01-31T08:31:46.781Z,55.72
2023-01-31T08:34:14.034Z,57.08
2023-01-31T08:36:41.201Z,59.78
2023-01-31T08:39:08.516Z,61.25
2023-01-31T08:41:36.824Z,60.38
2023-01-31T08:44:05.035Z,59.03
2023-01-31T08:46:33.903Z,57.15
2023-01-31T08:49:01.732Z,56.22
2023-01-31T08:51:29.105Z,60.60
2023-01-31T08:53:56.427Z,63.22
2023-01-31T08:56:26.175Z,56.70
2023-01-31T08:58:54.334Z,51.88
2023-01-31T09:01:21.865Z,56.72
2023-01-31T09:03:50.656Z,57.60
2023-01-31T09:06:19.448Z,57.55
2023-01-31T09:08:47.222Z,58.85
2023-01-31T09:11:17.377Z,55.95
2023-01-31T09:13:44.744Z,55.90
2023-01-31T09:16:12.836Z,51.17
2023-01-31T09:18:40.407Z,50.75
2023-01-31T09:21:08.629Z,52.88
2023-01-31T09:23:36.326Z,54.35
2023-01-31T09:26:03.623Z,49.85
2023-01-31T09:28:31.003Z,51.33
2023-01-31T09:31:03.825Z,51.50
2023-01-31T09:33:33.350Z,47.85
2023-01-31T09:36:02.201Z,48.88
2023-01-31T09:38:29.733Z,48.78
2023-01-31T09:40:58.094Z,53.03
2023-01-31T09:43:29.815Z,49.25
2023-01-31T09:45:59.671Z,49.28
2023-01-31T09:48:29.765Z,50.28
2023-01-31T09:50:58.515Z,49.50
2023-01-31T09:53:30.366Z,49.78
2023-01-31T09:56:03.360Z,49.33
2023-01-31T09:58:49.479Z,47.47
2023-01-31T10:01:22.657Z,49.63
2023-01-31T10:04:08.899Z,52.47
2023-01-31T10:06:36.300Z,51.08
2023-01-31T10:09:06.408Z,54.20
2023-01-31T10:11:39.481Z,54.08
2023-01-31T10:14:12.517Z,50.22
2023-01-31T10:16:45.928Z,52.45
2023-01-31T10:19:15.675Z,49.35
2023-01-31T10:21:49.635Z,47.08
2023-01-31T10:24:24.187Z,49.33
2023-01-31T10:26:53.648Z,46.45
2023-01-31T10:29:27.275Z,49.75
2023-01-31T10:31:57.758Z,46.83
2023-01-31T10:34:28.053Z,45.97
2023-01-31T10:37:10.492Z,44.10
2023-01-31T10:39:44.651Z,48.15
2023-01-31T10:42:27.775Z,49.50
2023-01-31T10:44:57.527Z,44.13
2023-01-31T10:47:35.193Z,46.13
2023-01-31T10:50:05.695Z,45.83
2023-01-31T10:52:32.804Z,33.97
2023-01-31T10:55:03.115Z,43.42
2023-01-31T10:57:30.369Z,41.92
2023-01-31T10:59:57.505Z,41.35
2023-01-31T11:02:26.334Z,41.45
2023-01-31T11:04:54.992Z,43.65
2023-01-31T11:07:22.568Z,41.88
2023-01-31T11:09:54.547Z,41.42
2023-01-31T11:12:22.660Z,44.95
2023-01-31T11:15:10.081Z,42.53
2023-01-31T11:17:38.407Z,46.83
2023-01-31T11:20:06.705Z,42.80
2023-01-31T11:22:36.425Z,42.45
2023-01-31T11:25:04.425Z,47.50
2023-01-31T11:27:39.064Z,43.65
2023-01-31T11:30:06.860Z,41.60
2023-01-31T11:32:36.337Z,47.80
2023-01-31T11:35:15.473Z,40.80
2023-01-31T11:37:57.851Z,43.63
2023-01-31T11:40:34.015Z,46.63
2023-01-31T11:43:02.828Z,61.75
2023-01-31T11:45:33.934Z,47.10
2023-01-31T11:48:08.456Z,50.63
2023-01-31T11:50:38.185Z,51.58
2023-01-31T11:53:17.369Z,52.30
2023-01-31T11:55:45.509Z,50.30
2023-01-31T11:58:21.590Z,47.92
2023-01-31T12:00:57.154Z,52.20
2023-01-31T12:03:25.073Z,43.88
2023-01-31T12:06:00.306Z,49.00
2023-01-31T12:08:38.394Z,47.05
2023-01-31T12:11:06.823Z,51.42
2023-01-31T12:13:45.795Z,52.17
2023-01-31T12:16:13.202Z,50.88
2023-01-31T12:18:59.082Z,45.30
2023-01-31T12:21:38.495Z,48.22
2023-01-31T12:24:19.473Z,46.13
2023-01-31T12:26:49.008Z,49.15
2023-01-31T12:29:34.724Z,44.40
2023-01-31T12:32:40.381Z,46.58
2023-01-31T12:35:23.121Z,48.33
2023-01-31T12:37:53.179Z,49.90
2023-01-31T12:40:30.841Z,47.08
2023-01-31T12:43:03.438Z,49.00
2023-01-31T12:45:30.539Z,50.80
2023-01-31T12:48:16.435Z,49.58
2023-01-31T12:51:02.513Z,47.60
2023-01-31T12:53:32.783Z,53.55
2023-01-31T12:56:08.747Z,49.05
2023-01-31T12:58:35.925Z,45.70
2023-01-31T13:01:26.492Z,46.05
2023-01-31T13:04:12.487Z,46.60
2023-01-31T13:06:42.382Z,49.60
2023-01-31T13:09:24.456Z,47.38
2023-01-31T13:12:02.067Z,48.10
2023-01-31T13:14:32.101Z,43.60
2023-01-31T13:17:02.036Z,47.63
2023-01-31T13:19:29.731Z,46.65
2023-01-31T13:21:59.777Z,43.38
2023-01-31T13:24:32.171Z,47.92
2023-01-31T13:27:02.243Z,45.03
2023-01-31T13:29:39.675Z,48.35
2023-01-31T13:32:16.832Z,46.92
2023-01-31T13:34:56.683Z,47.58
2023-01-31T13:37:26.714Z,47.30
2023-01-31T13:39:57.225Z,46.90
2023-01-31T13:42:24.417Z,53.35
2023-01-31T13:44:51.651Z,49.70
2023-01-31T13:47:24.695Z,48.65
2023-01-31T13:50:05.297Z,52.63
2023-01-31T13:52:32.393Z,51.83
2023-01-31T13:55:01.868Z,48.72
2023-01-31T13:57:46.611Z,51.03
2023-01-31T14:00:32.475Z,55.95
2023-01-31T14:03:03.678Z,55.97
2023-01-31T14:08:16.475Z,54.20
2023-01-31T14:10:43.943Z,62.00
2023-01-31T14:13:21.163Z,58.33
2023-01-31T14:15:49.914Z,60.92
2023-01-31T14:18:35.913Z,59.33
2023-01-31T14:21:38.541Z,56.42
2023-01-31T14:24:06.387Z,62.75
2023-01-31T14:26:33.551Z,59.97
2023-01-31T14:29:01.385Z,55.00
2023-01-31T14:31:28.587Z,58.72
2023-01-31T14:33:57.508Z,56.70
2023-01-31T14:36:43.560Z,52.00
2023-01-31T14:39:19.599Z,54.67
2023-01-31T14:42:05.200Z,60.85
2023-01-31T14:44:46.211Z,54.05
2023-01-31T14:47:25.979Z,52.10
2023-01-31T14:49:59.502Z,54.28
2023-01-31T14:52:26.707Z,62.03
2023-01-31T14:55:12.206Z,58.42
2023-01-31T14:57:43.823Z,56.55
2023-01-31T15:00:29.009Z,65.50
2023-01-31T15:03:15.243Z,58.95
2023-01-31T15:05:44.089Z,63.75
2023-01-31T15:08:14.272Z,61.15
2023-01-31T15:10:53.765Z,53.97
2023-01-31T15:13:39.633Z,62.47
2023-01-31T15:16:27.299Z,59.72
2023-01-31T15:19:00.767Z,61.17
2023-01-31T15:21:32.023Z,65.38
2023-01-31T15:26:27.950Z,57.92
2023-01-31T15:28:57.891Z,60.08
2023-01-31T15:31:51.248Z,59.67
2023-01-31T15:34:24.072Z,59.15
2023-01-31T15:37:07.033Z,65.82
2023-01-31T15:39:57.607Z,57.63
2023-01-31T15:42:32.219Z,59.67
2023-01-31T15:45:17.920Z,55.13
2023-01-31T15:47:54.757Z,54.95
2023-01-31T15:50:22.134Z,51.30
2023-01-31T15:52:49.290Z,55.40
2023-01-31T15:55:17.818Z,51.03
2023-01-31T15:57:45.107Z,51.75
2023-01-31T16:00:18.560Z,51.55
2023-01-31T16:02:48.071Z,56.70
2023-01-31T16:05:21.130Z,50.42
2023-01-31T16:07:49.245Z,55.55
2023-01-31T16:10:16.714Z,53.22
2023-01-31T16:12:53.674Z,57.20
2023-01-31T16:15:27.920Z,56.72
2023-01-31T16:17:56.826Z,53.78
2023-01-31T16:20:42.513Z,54.42
2023-01-31T16:23:39.227Z,56.80
2023-01-31T16:26:08.464Z,53.95
2023-01-31T16:28:40.258Z,56.22
2023-01-31T16:31:09.154Z,56.22
2023-01-31T16:33:36.922Z,51.95
2023-01-31T16:36:13.731Z,55.47
2023-01-31T16:38:43.691Z,50.92
2023-01-31T16:41:13.022Z,53.83
2023-01-31T16:43:41.920Z,53.67
2023-01-31T16:46:23.457Z,52.63
2023-01-31T16:49:02.134Z,56.00
2023-01-31T16:51:29.414Z,54.13
2023-01-31T16:54:15.256Z,50.35
2023-01-31T16:56:43.831Z,54.55
2023-01-31T16:59:31.285Z,53.83
2023-01-31T17:02:02.395Z,52.58
2023-01-31T17:04:29.636Z,50.65
2023-01-31T17:07:04.067Z,50.75
2023-01-31T17:09:31.315Z,49.03
2023-01-31T17:11:58.508Z,44.75
2023-01-31T17:14:25.826Z,48.08
2023-01-31T17:16:53.672Z,41.22
2023-01-31T17:19:20.880Z,44.38
2023-01-31T17:21:50.224Z,40.42
2023-01-31T17:24:19.583Z,44.35
2023-01-31T17:26:46.975Z,40.90
2023-01-31T17:29:14.258Z,41.22
2023-01-31T17:31:42.152Z,42.33
2023-01-31T17:34:13.489Z,41.88
2023-01-31T17:36:40.673Z,42.63
2023-01-31T17:39:07.851Z,41.30
2023-01-31T17:41:35.175Z,42.90
2023-01-31T17:44:03.142Z,42.38
2023-01-31T17:46:31.523Z,46.35
2023-01-31T17:48:58.776Z,39.88
2023-01-31T17:51:26.077Z,39.38
2023-01-31T17:53:53.226Z,45.33
2023-01-31T17:56:20.438Z,41.45
2023-01-31T17:58:49.445Z,47.33
2023-01-31T18:01:16.704Z,49.90
2023-01-31T18:03:44.995Z,41.70
2023-01-31T18:06:13.055Z,49.90
2023-01-31T18:08:40.167Z,46.45
2023-01-31T18:11:08.720Z,46.22
2023-01-31T18:13:39.336Z,46.63
2023-01-31T18:16:10.588Z,50.90
2023-01-31T18:18:40.533Z,52.42
2023-01-31T18:21:11.544Z,47.05
2023-01-31T18:23:38.686Z,46.88
2023-01-31T18:26:06.476Z,46.15
2023-01-31T18:28:33.665Z,49.47
2023-01-31T18:31:10.773Z,45.67
2023-01-31T18:33:38.273Z,44.75
2023-01-31T18:36:06.050Z,42.65
2023-01-31T18:38:33.421Z,41.15
2023-01-31T18:41:00.647Z,46.75
2023-01-31T18:43:30.599Z,47.25
2023-01-31T18:45:57.779Z,42.90
2023-01-31T18:48:25.089Z,45.03
2023-01-31T18:50:52.266Z,48.70
2023-01-31T18:53:19.452Z,47.70
2023-01-31T18:55:46.551Z,43.15
2023-01-31T18:58:13.729Z,49.42
2023-01-31T19:00:41.166Z,49.28
2023-01-31T19:03:08.354Z,45.55
2023-01-31T19:05:37.360Z,46.72
2023-01-31T19:08:04.625Z,39.67
2023-01-31T19:10:31.823Z,42.63
2023-01-31T19:12:59.013Z,39.35
2023-01-31T19:15:26.184Z,38.88
2023-01-31T19:17:53.281Z,45.72
2023-01-31T19:20:20.402Z,46.03
2023-01-31T19:22:47.620Z,41.53
2023-01-31T19:25:14.805Z,40.10
2023-01-31T19:27:41.935Z,44.85
2023-01-31T19:30:09.806Z,45.72
2023-01-31T19:32:36.994Z,43.33
2023-01-31T19:35:04.184Z,40.08
2023-01-31T19:37:31.642Z,39.40
2023-01-31T19:39:58.838Z,41.92
2023-01-31T19:42:28.054Z,41.67
2023-01-31T19:44:55.248Z,38.95
2023-01-31T19:47:24.856Z,42.13
2023-01-31T19:49:52.014Z,40.90
2023-01-31T19:52:19.209Z,40.42
2023-01-31T19:54:46.311Z,33.28
2023-01-31T19:57:13.442Z,31.60
2023-01-31T19:59:41.284Z,29.05
2023-01-31T20:02:09.652Z,30.35
2023-01-31T20:04:36.828Z,30.25
2023-01-31T20:07:04.030Z,35.33
2023-01-31T20:09:31.319Z,29.08
2023-01-31T20:11:58.463Z,25.60
2023-01-31T20:14:25.704Z,25.90
2023-01-31T20:16:52.835Z,25.52
2023-01-31T20:19:22.419Z,24.65
2023-01-31T20:21:50.496Z,28.25
2023-01-31T20:24:17.647Z,25.30
2023-01-31T20:26:44.845Z,29.00
2023-01-31T20:29:12.394Z,25.00
2023-01-31T20:31:39.601Z,24.20
2023-01-31T20:34:07.018Z,20.90
2023-01-31T20:36:34.243Z,22.33
2023-01-31T20:39:01.366Z,20.77
2023-01-31T20:41:29.483Z,24.10
2023-01-31T20:43:57.903Z,23.55
2023-01-31T20:46:25.220Z,23.60
2023-01-31T20:48:52.820Z,22.65
2023-01-31T20:51:20.003Z,22.50
2023-01-31T20:53:47.187Z,19.55
2023-01-31T20:56:14.336Z,20.50
2023-01-31T20:58:43.114Z,17.63
2023-01-31T21:01:10.767Z,18.42
2023-01-31T21:03:38.172Z,21.77
2023-01-31T21:06:05.952Z,17.00
2023-01-31T21:08:35.241Z,20.27
2023-01-31T21:11:04.837Z,16.73
2023-01-31T21:13:33.030Z,19.38
2023-01-31T21:16:04.403Z,21.48
2023-01-31T21:21:03.720Z,22.33
2023-01-31T21:23:30.862Z,19.90
2023-01-31T21:26:01.471Z,14.68
2023-01-31T21:28:28.693Z,19.48
2023-01-31T21:31:06.347Z,13.38
2023-01-31T21:33:33.629Z,14.68
2023-01-31T21:36:07.287Z,16.70
2023-01-31T21:38:36.145Z,18.90
2023-01-31T21:41:22.397Z,13.90
2023-01-31T21:43:49.589Z,15.05
2023-01-31T21:46:16.790Z,16.13
2023-01-31T21:48:44.115Z,12.98
2023-01-31T21:51:12.734Z,19.55
2023-01-31T21:53:40.561Z,12.65
2023-01-31T21:56:15.129Z,14.63
2023-01-31T21:58:43.303Z,13.18
2023-01-31T22:01:11.368Z,14.52
2023-01-31T22:03:39.670Z,17.38
2023-01-31T22:06:07.819Z,15.93
2023-01-31T22:08:35.207Z,13.93
2023-01-31T22:11:03.508Z,12.98
2023-01-31T22:13:31.190Z,17.00
2023-01-31T22:15:59.476Z,14.43
